sensor_id;sensor_type;location;lat;lon;timestamp;pressure;altitude;pressure_sealevel;temperature;humidity
64792;BME280;51226;47.504;19.074;2023-02-14T00:01:41;102001.62;;;4.97;69.23
64792;BME280;51226;47.504;19.074;2023-02-14T00:04:44;101993.59;;;4.94;69.39
64792;BME280;51226;47.504;19.074;2023-02-14T00:07:48;101996.84;;;4.92;69.51
64792;BME280;51226;47.504;19.074;2023-02-14T00:10:51;101996.09;;;4.93;69.53
64792;BME280;51226;47.504;19.074;2023-02-14T00:13:55;101995.16;;;4.92;69.56
64792;BME280;51226;47.504;19.074;2023-02-14T00:17:16;102001.12;;;4.91;69.43
64792;BME280;51226;47.504;19.074;2023-02-14T00:20:22;102005.09;;;4.88;69.36
64792;BME280;51226;47.504;19.074;2023-02-14T00:23:25;102004.72;;;4.83;69.53
64792;BME280;51226;47.504;19.074;2023-02-14T00:26:28;101996.97;;;4.83;69.82
64792;BME280;51226;47.504;19.074;2023-02-14T00:29:32;101994.38;;;4.83;69.98
64792;BME280;51226;47.504;19.074;2023-02-14T00:32:38;101986.75;;;4.85;69.82
64792;BME280;51226;47.504;19.074;2023-02-14T00:35:41;101992.81;;;4.85;69.82
64792;BME280;51226;47.504;19.074;2023-02-14T00:38:44;101981.47;;;4.83;69.80
64792;BME280;51226;47.504;19.074;2023-02-14T00:41:47;101987.13;;;4.79;69.88
64792;BME280;51226;47.504;19.074;2023-02-14T00:44:51;101995.66;;;4.78;70.09
64792;BME280;51226;47.504;19.074;2023-02-14T00:47:54;102011.03;;;4.76;70.18
64792;BME280;51226;47.504;19.074;2023-02-14T00:50:57;102007.38;;;4.74;70.22
64792;BME280;51226;47.504;19.074;2023-02-14T00:54:00;102000.28;;;4.72;70.11
64792;BME280;51226;47.504;19.074;2023-02-14T00:57:06;101994.72;;;4.67;70.29
64792;BME280;51226;47.504;19.074;2023-02-14T01:00:11;102004.00;;;4.65;70.38
64792;BME280;51226;47.504;19.074;2023-02-14T01:03:15;102003.72;;;4.62;70.36
64792;BME280;51226;47.504;19.074;2023-02-14T01:06:18;102003.59;;;4.60;70.34
64792;BME280;51226;47.504;19.074;2023-02-14T01:09:21;101994.94;;;4.60;70.22
64792;BME280;51226;47.504;19.074;2023-02-14T01:12:24;101991.94;;;4.55;70.49
64792;BME280;51226;47.504;19.074;2023-02-14T01:15:27;101988.34;;;4.53;70.79
64792;BME280;51226;47.504;19.074;2023-02-14T01:18:31;101989.09;;;4.52;71.21
64792;BME280;51226;47.504;19.074;2023-02-14T01:21:34;101978.63;;;4.51;71.26
64792;BME280;51226;47.504;19.074;2023-02-14T01:24:37;101987.16;;;4.50;71.43
64792;BME280;51226;47.504;19.074;2023-02-14T01:27:40;101978.34;;;4.48;71.67
64792;BME280;51226;47.504;19.074;2023-02-14T01:30:43;101970.50;;;4.46;71.75
64792;BME280;51226;47.504;19.074;2023-02-14T01:33:48;101974.88;;;4.47;71.82
64792;BME280;51226;47.504;19.074;2023-02-14T01:36:51;101970.22;;;4.43;71.92
64792;BME280;51226;47.504;19.074;2023-02-14T01:39:54;101966.69;;;4.42;71.95
64792;BME280;51226;47.504;19.074;2023-02-14T01:42:57;101960.66;;;4.42;72.20
64792;BME280;51226;47.504;19.074;2023-02-14T01:46:00;101960.50;;;4.40;72.28
64792;BME280;51226;47.504;19.074;2023-02-14T01:49:33;101968.91;;;4.38;72.21
64792;BME280;51226;47.504;19.074;2023-02-14T01:52:42;101975.87;;;4.39;72.13
64792;BME280;51226;47.504;19.074;2023-02-14T01:55:51;101976.91;;;4.41;72.29
64792;BME280;51226;47.504;19.074;2023-02-14T01:59:00;101973.56;;;4.42;72.15
64792;BME280;51226;47.504;19.074;2023-02-14T02:02:04;101968.25;;;4.40;72.19
64792;BME280;51226;47.504;19.074;2023-02-14T02:05:08;101967.97;;;4.37;72.52
64792;BME280;51226;47.504;19.074;2023-02-14T02:08:11;101970.41;;;4.36;72.49
64792;BME280;51226;47.504;19.074;2023-02-14T02:11:14;101953.91;;;4.34;72.46
64792;BME280;51226;47.504;19.074;2023-02-14T02:14:20;101967.84;;;4.36;72.47
64792;BME280;51226;47.504;19.074;2023-02-14T02:21:28;101941.25;;;4.37;72.72
64792;BME280;51226;47.504;19.074;2023-02-14T02:41:05;101940.62;;;4.39;72.62
64792;BME280;51226;47.504;19.074;2023-02-14T02:44:28;101945.66;;;4.38;72.62
64792;BME280;51226;47.504;19.074;2023-02-14T02:51:09;101935.81;;;4.34;72.81
64792;BME280;51226;47.504;19.074;2023-02-14T02:54:42;101936.59;;;4.33;72.91
64792;BME280;51226;47.504;19.074;2023-02-14T02:57:48;101940.22;;;4.35;72.75
64792;BME280;51226;47.504;19.074;2023-02-14T03:00:53;101938.13;;;4.31;72.88
64792;BME280;51226;47.504;19.074;2023-02-14T03:04:02;101931.91;;;4.29;72.86
64792;BME280;51226;47.504;19.074;2023-02-14T03:07:37;101932.69;;;4.27;72.90
64792;BME280;51226;47.504;19.074;2023-02-14T03:10:44;101934.50;;;4.29;72.95
64792;BME280;51226;47.504;19.074;2023-02-14T03:28:07;101939.41;;;4.25;72.81
64792;BME280;51226;47.504;19.074;2023-02-14T03:31:23;101937.09;;;4.29;72.65
64792;BME280;51226;47.504;19.074;2023-02-14T03:34:34;101931.37;;;4.22;72.82
64792;BME280;51226;47.504;19.074;2023-02-14T03:37:50;101930.34;;;4.20;73.00
64792;BME280;51226;47.504;19.074;2023-02-14T03:40:58;101931.37;;;4.22;72.78
64792;BME280;51226;47.504;19.074;2023-02-14T03:44:06;101931.22;;;4.21;72.71
64792;BME280;51226;47.504;19.074;2023-02-14T03:47:17;101933.56;;;4.18;72.91
64792;BME280;51226;47.504;19.074;2023-02-14T03:50:22;101934.06;;;4.14;72.87
64792;BME280;51226;47.504;19.074;2023-02-14T03:53:28;101935.31;;;4.08;73.22
64792;BME280;51226;47.504;19.074;2023-02-14T03:56:40;101929.53;;;4.11;73.17
64792;BME280;51226;47.504;19.074;2023-02-14T03:59:44;101943.47;;;4.13;72.99
64792;BME280;51226;47.504;19.074;2023-02-14T04:02:54;101938.19;;;4.12;73.08
64792;BME280;51226;47.504;19.074;2023-02-14T04:06:00;101934.56;;;4.10;73.10
64792;BME280;51226;47.504;19.074;2023-02-14T04:09:03;101934.16;;;4.05;73.25
64792;BME280;51226;47.504;19.074;2023-02-14T04:12:06;101932.31;;;4.04;73.31
64792;BME280;51226;47.504;19.074;2023-02-14T04:15:10;101925.50;;;4.04;73.37
64792;BME280;51226;47.504;19.074;2023-02-14T04:18:13;101928.84;;;4.03;73.37
64792;BME280;51226;47.504;19.074;2023-02-14T04:21:35;101932.59;;;4.07;73.34
64792;BME280;51226;47.504;19.074;2023-02-14T04:24:38;101930.28;;;4.10;73.19
64792;BME280;51226;47.504;19.074;2023-02-14T04:27:41;101929.59;;;4.02;73.34
64792;BME280;51226;47.504;19.074;2023-02-14T04:30:44;101927.81;;;4.01;73.60
64792;BME280;51226;47.504;19.074;2023-02-14T04:33:47;101936.59;;;4.03;73.24
64792;BME280;51226;47.504;19.074;2023-02-14T04:36:52;101940.56;;;4.00;73.56
64792;BME280;51226;47.504;19.074;2023-02-14T04:39:56;101935.28;;;3.98;73.58
64792;BME280;51226;47.504;19.074;2023-02-14T04:42:59;101936.53;;;3.93;74.01
64792;BME280;51226;47.504;19.074;2023-02-14T04:46:03;101945.47;;;3.97;73.65
64792;BME280;51226;47.504;19.074;2023-02-14T04:49:06;101940.84;;;4.03;73.50
64792;BME280;51226;47.504;19.074;2023-02-14T04:52:09;101939.31;;;4.05;73.42
64792;BME280;51226;47.504;19.074;2023-02-14T04:55:12;101934.63;;;4.01;73.46
64792;BME280;51226;47.504;19.074;2023-02-14T04:58:15;101934.38;;;3.98;73.70
64792;BME280;51226;47.504;19.074;2023-02-14T05:01:18;101929.06;;;3.96;73.85
64792;BME280;51226;47.504;19.074;2023-02-14T05:04:22;101933.16;;;4.13;73.27
64792;BME280;51226;47.504;19.074;2023-02-14T05:07:25;101935.47;;;4.10;73.42
64792;BME280;51226;47.504;19.074;2023-02-14T05:10:27;101931.44;;;4.03;73.42
64792;BME280;51226;47.504;19.074;2023-02-14T05:13:30;101939.03;;;4.02;73.50
64792;BME280;51226;47.504;19.074;2023-02-14T05:16:33;101936.03;;;3.97;73.58
64792;BME280;51226;47.504;19.074;2023-02-14T05:19:36;101933.31;;;3.96;73.69
64792;BME280;51226;47.504;19.074;2023-02-14T05:22:39;101932.84;;;4.00;73.45
64792;BME280;51226;47.504;19.074;2023-02-14T05:25:47;101929.34;;;3.99;73.31
64792;BME280;51226;47.504;19.074;2023-02-14T05:28:50;101929.59;;;4.02;73.27
64792;BME280;51226;47.504;19.074;2023-02-14T05:31:53;101932.56;;;3.97;73.43
64792;BME280;51226;47.504;19.074;2023-02-14T05:34:56;101935.13;;;3.97;73.50
64792;BME280;51226;47.504;19.074;2023-02-14T05:37:58;101940.53;;;3.89;73.88
64792;BME280;51226;47.504;19.074;2023-02-14T05:41:01;101939.75;;;3.90;73.78
64792;BME280;51226;47.504;19.074;2023-02-14T05:44:04;101942.31;;;3.90;73.70
64792;BME280;51226;47.504;19.074;2023-02-14T05:47:07;101938.97;;;3.92;73.70
64792;BME280;51226;47.504;19.074;2023-02-14T05:50:11;101945.69;;;3.89;73.79
64792;BME280;51226;47.504;19.074;2023-02-14T05:53:14;101942.19;;;3.89;73.76
64792;BME280;51226;47.504;19.074;2023-02-14T05:56:17;101939.34;;;3.86;73.79
64792;BME280;51226;47.504;19.074;2023-02-14T05:59:20;101949.91;;;3.89;73.84
64792;BME280;51226;47.504;19.074;2023-02-14T06:02:23;101945.53;;;3.88;73.86
64792;BME280;51226;47.504;19.074;2023-02-14T06:05:26;101947.63;;;3.92;73.69
64792;BME280;51226;47.504;19.074;2023-02-14T06:08:29;101948.41;;;3.91;73.72
64792;BME280;51226;47.504;19.074;2023-02-14T06:11:35;101951.38;;;3.96;73.58
64792;BME280;51226;47.504;19.074;2023-02-14T06:14:37;101953.97;;;3.96;73.61
64792;BME280;51226;47.504;19.074;2023-02-14T06:17:40;101954.88;;;3.96;73.51
64792;BME280;51226;47.504;19.074;2023-02-14T06:20:43;101956.53;;;3.96;73.68
64792;BME280;51226;47.504;19.074;2023-02-14T06:23:46;101970.53;;;3.98;73.71
64792;BME280;51226;47.504;19.074;2023-02-14T06:26:49;101979.44;;;4.01;73.55
64792;BME280;51226;47.504;19.074;2023-02-14T06:29:52;101980.62;;;4.05;73.43
64792;BME280;51226;47.504;19.074;2023-02-14T06:32:54;101985.41;;;4.11;73.40
64792;BME280;51226;47.504;19.074;2023-02-14T06:35:58;101988.91;;;4.11;73.31
64792;BME280;51226;47.504;19.074;2023-02-14T06:39:00;101989.31;;;4.16;73.25
64792;BME280;51226;47.504;19.074;2023-02-14T06:42:04;101994.12;;;4.21;73.27
64792;BME280;51226;47.504;19.074;2023-02-14T06:45:06;102001.28;;;4.34;73.23
64792;BME280;51226;47.504;19.074;2023-02-14T06:48:10;102002.22;;;4.35;72.93
64792;BME280;51226;47.504;19.074;2023-02-14T06:51:12;102004.28;;;4.39;72.66
64792;BME280;51226;47.504;19.074;2023-02-14T06:54:16;102001.22;;;4.43;72.32
64792;BME280;51226;47.504;19.074;2023-02-14T06:57:18;102003.19;;;4.56;71.80
64792;BME280;51226;47.504;19.074;2023-02-14T07:00:21;102012.78;;;4.67;71.34
64792;BME280;51226;47.504;19.074;2023-02-14T07:03:25;102001.62;;;4.87;70.36
64792;BME280;51226;47.504;19.074;2023-02-14T07:06:29;102014.00;;;4.81;70.82
64792;BME280;51226;47.504;19.074;2023-02-14T07:09:32;102019.06;;;4.79;70.88
64792;BME280;51226;47.504;19.074;2023-02-14T07:12:36;102021.16;;;4.94;70.20
64792;BME280;51226;47.504;19.074;2023-02-14T07:15:40;102012.78;;;5.07;69.70
64792;BME280;51226;47.504;19.074;2023-02-14T07:18:43;102018.72;;;5.16;69.61
64792;BME280;51226;47.504;19.074;2023-02-14T07:21:46;102016.69;;;5.22;69.71
64792;BME280;51226;47.504;19.074;2023-02-14T07:24:49;102017.09;;;5.37;68.86
64792;BME280;51226;47.504;19.074;2023-02-14T07:27:52;102022.12;;;5.46;68.81
64792;BME280;51226;47.504;19.074;2023-02-14T07:30:59;102017.63;;;5.64;68.16
64792;BME280;51226;47.504;19.074;2023-02-14T07:34:03;102018.41;;;5.83;67.44
64792;BME280;51226;47.504;19.074;2023-02-14T07:37:06;102027.31;;;6.07;66.20
64792;BME280;51226;47.504;19.074;2023-02-14T07:40:09;102030.91;;;6.20;65.61
64792;BME280;51226;47.504;19.074;2023-02-14T07:43:17;102024.13;;;6.42;65.33
64792;BME280;51226;47.504;19.074;2023-02-14T07:46:21;102035.16;;;6.72;64.00
64792;BME280;51226;47.504;19.074;2023-02-14T07:49:24;102033.44;;;7.05;63.40
64792;BME280;51226;47.504;19.074;2023-02-14T07:52:27;102042.25;;;7.41;62.10
64792;BME280;51226;47.504;19.074;2023-02-14T07:55:30;102042.59;;;7.79;60.43
64792;BME280;51226;47.504;19.074;2023-02-14T07:58:33;102040.06;;;8.15;58.96
64792;BME280;51226;47.504;19.074;2023-02-14T08:01:36;102041.69;;;8.72;57.25
64792;BME280;51226;47.504;19.074;2023-02-14T08:04:39;102031.69;;;9.52;54.68
64792;BME280;51226;47.504;19.074;2023-02-14T08:07:42;102029.91;;;10.16;53.06
64792;BME280;51226;47.504;19.074;2023-02-14T08:10:47;102030.06;;;11.28;49.95
64792;BME280;51226;47.504;19.074;2023-02-14T08:13:50;102022.00;;;13.71;43.22
64792;BME280;51226;47.504;19.074;2023-02-14T08:16:53;102016.06;;;17.33;35.54
64792;BME280;51226;47.504;19.074;2023-02-14T08:19:56;102007.81;;;19.73;30.88
64792;BME280;51226;47.504;19.074;2023-02-14T08:22:59;102006.66;;;20.32;29.48
64792;BME280;51226;47.504;19.074;2023-02-14T08:26:02;102004.44;;;19.15;31.57
64792;BME280;51226;47.504;19.074;2023-02-14T08:29:06;102008.97;;;19.19;31.59
64792;BME280;51226;47.504;19.074;2023-02-14T08:32:09;102008.31;;;19.58;30.61
64792;BME280;51226;47.504;19.074;2023-02-14T08:35:13;102012.69;;;20.25;29.67
64792;BME280;51226;47.504;19.074;2023-02-14T08:38:18;102017.28;;;20.68;28.58
64792;BME280;51226;47.504;19.074;2023-02-14T08:41:21;102005.28;;;21.28;28.42
64792;BME280;51226;47.504;19.074;2023-02-14T08:44:24;102007.66;;;22.66;25.58
64792;BME280;51226;47.504;19.074;2023-02-14T08:47:27;102004.34;;;23.54;25.04
64792;BME280;51226;47.504;19.074;2023-02-14T08:50:30;102006.44;;;23.84;24.18
64792;BME280;51226;47.504;19.074;2023-02-14T08:53:33;102005.84;;;24.19;23.83
64792;BME280;51226;47.504;19.074;2023-02-14T08:56:36;102001.34;;;24.15;23.33
64792;BME280;51226;47.504;19.074;2023-02-14T08:59:40;102005.53;;;23.82;24.06
64792;BME280;51226;47.504;19.074;2023-02-14T09:02:43;102010.06;;;23.93;23.25
64792;BME280;51226;47.504;19.074;2023-02-14T09:05:46;102008.66;;;24.38;22.83
64792;BME280;51226;47.504;19.074;2023-02-14T09:08:49;101997.69;;;26.22;21.46
64792;BME280;51226;47.504;19.074;2023-02-14T09:11:52;101995.75;;;29.09;18.55
64792;BME280;51226;47.504;19.074;2023-02-14T09:14:55;101984.78;;;31.26;16.20
64792;BME280;51226;47.504;19.074;2023-02-14T09:17:58;101974.78;;;33.31;14.76
64792;BME280;51226;47.504;19.074;2023-02-14T09:21:02;101982.16;;;35.31;12.51
64792;BME280;51226;47.504;19.074;2023-02-14T09:24:08;101987.66;;;36.37;11.74
64792;BME280;51226;47.504;19.074;2023-02-14T09:27:11;101986.28;;;37.05;11.52
64792;BME280;51226;47.504;19.074;2023-02-14T09:30:14;101981.63;;;37.64;10.66
64792;BME280;51226;47.504;19.074;2023-02-14T09:33:17;101988.00;;;38.00;10.50
64792;BME280;51226;47.504;19.074;2023-02-14T09:36:20;101994.09;;;38.73;9.88
64792;BME280;51226;47.504;19.074;2023-02-14T09:39:23;101996.28;;;39.32;9.61
64792;BME280;51226;47.504;19.074;2023-02-14T09:42:53;101989.31;;;39.89;9.28
64792;BME280;51226;47.504;19.074;2023-02-14T09:46:05;101988.34;;;39.59;9.38
64792;BME280;51226;47.504;19.074;2023-02-14T09:49:14;101989.59;;;40.14;9.14
64792;BME280;51226;47.504;19.074;2023-02-14T09:52:21;101992.81;;;40.07;9.12
64792;BME280;51226;47.504;19.074;2023-02-14T09:55:37;101994.16;;;40.44;8.88
64792;BME280;51226;47.504;19.074;2023-02-14T10:01:51;101988.91;;;40.55;8.56
64792;BME280;51226;47.504;19.074;2023-02-14T10:11:20;101983.50;;;34.97;11.75
64792;BME280;51226;47.504;19.074;2023-02-14T10:14:29;101975.63;;;34.15;12.61
64792;BME280;51226;47.504;19.074;2023-02-14T10:18:09;101980.28;;;31.65;13.60
64792;BME280;51226;47.504;19.074;2023-02-14T10:21:06;101977.59;;;28.55;16.58
64792;BME280;51226;47.504;19.074;2023-02-14T10:24:16;101981.59;;;25.44;19.78
64792;BME280;51226;47.504;19.074;2023-02-14T10:27:38;101984.53;;;24.22;21.29
64792;BME280;51226;47.504;19.074;2023-02-14T10:30:59;101974.84;;;23.36;22.10
64792;BME280;51226;47.504;19.074;2023-02-14T10:34:21;101970.53;;;22.75;23.25
64792;BME280;51226;47.504;19.074;2023-02-14T10:50:20;101967.50;;;21.42;24.55
64792;BME280;51226;47.504;19.074;2023-02-14T10:56:40;101960.13;;;21.27;26.16
64792;BME280;51226;47.504;19.074;2023-02-14T11:03:06;101953.50;;;21.05;25.63
64792;BME280;51226;47.504;19.074;2023-02-14T11:06:10;101946.62;;;20.72;26.65
64792;BME280;51226;47.504;19.074;2023-02-14T11:09:14;101951.09;;;20.35;26.31
64792;BME280;51226;47.504;19.074;2023-02-14T11:15:39;101947.34;;;20.25;27.01
64792;BME280;51226;47.504;19.074;2023-02-14T11:18:43;101951.78;;;20.28;26.60
64792;BME280;51226;47.504;19.074;2023-02-14T11:21:47;101945.41;;;20.20;26.46
64792;BME280;51226;47.504;19.074;2023-02-14T11:25:02;101950.78;;;20.23;26.50
64792;BME280;51226;47.504;19.074;2023-02-14T11:28:13;101952.97;;;20.03;26.56
64792;BME280;51226;47.504;19.074;2023-02-14T11:31:44;101946.06;;;19.74;27.24
64792;BME280;51226;47.504;19.074;2023-02-14T11:38:08;101943.22;;;19.33;28.43
64792;BME280;51226;47.504;19.074;2023-02-14T11:41:26;101941.78;;;19.44;27.94
64792;BME280;51226;47.504;19.074;2023-02-14T11:44:31;101943.00;;;19.25;27.77
64792;BME280;51226;47.504;19.074;2023-02-14T11:47:35;101937.53;;;19.19;28.63
64792;BME280;51226;47.504;19.074;2023-02-14T11:50:54;101937.16;;;19.37;27.60
64792;BME280;51226;47.504;19.074;2023-02-14T11:54:00;101936.62;;;19.51;27.57
64792;BME280;51226;47.504;19.074;2023-02-14T11:57:11;101933.94;;;19.49;27.46
64792;BME280;51226;47.504;19.074;2023-02-14T12:00:17;101934.38;;;19.66;27.60
64792;BME280;51226;47.504;19.074;2023-02-14T12:03:23;101943.28;;;19.68;26.91
64792;BME280;51226;47.504;19.074;2023-02-14T12:06:28;101932.19;;;19.16;27.94
64792;BME280;51226;47.504;19.074;2023-02-14T12:09:32;101934.22;;;18.95;28.79
64792;BME280;51226;47.504;19.074;2023-02-14T12:12:35;101931.31;;;19.17;27.80
64792;BME280;51226;47.504;19.074;2023-02-14T12:15:50;101932.19;;;18.84;28.07
64792;BME280;51226;47.504;19.074;2023-02-14T12:18:58;101926.19;;;18.61;28.23
64792;BME280;51226;47.504;19.074;2023-02-14T12:22:05;101921.28;;;18.75;28.44
64792;BME280;51226;47.504;19.074;2023-02-14T12:25:15;101917.84;;;18.78;27.90
64792;BME280;51226;47.504;19.074;2023-02-14T12:28:23;101916.75;;;18.69;28.43
64792;BME280;51226;47.504;19.074;2023-02-14T12:31:29;101911.59;;;18.76;28.44
64792;BME280;51226;47.504;19.074;2023-02-14T12:34:34;101910.81;;;18.48;28.58
64792;BME280;51226;47.504;19.074;2023-02-14T12:37:46;101913.84;;;18.31;29.26
64792;BME280;51226;47.504;19.074;2023-02-14T12:44:48;101907.41;;;18.23;28.96
64792;BME280;51226;47.504;19.074;2023-02-14T12:53:24;101888.47;;;18.08;29.47
64792;BME280;51226;47.504;19.074;2023-02-14T13:00:04;101886.91;;;18.14;29.09
64792;BME280;51226;47.504;19.074;2023-02-14T13:03:31;101886.94;;;18.16;29.56
64792;BME280;51226;47.504;19.074;2023-02-14T13:07:32;101875.72;;;18.23;29.62
64792;BME280;51226;47.504;19.074;2023-02-14T13:13:55;101874.59;;;20.52;26.12
64792;BME280;51226;47.504;19.074;2023-02-14T13:20:31;101863.50;;;23.93;22.28
64792;BME280;51226;47.504;19.074;2023-02-14T13:23:42;101865.75;;;25.05;20.85
64792;BME280;51226;47.504;19.074;2023-02-14T13:26:58;101861.31;;;26.09;19.75
64792;BME280;51226;47.504;19.074;2023-02-14T13:30:07;101858.44;;;26.59;19.24
64792;BME280;51226;47.504;19.074;2023-02-14T13:33:25;101859.38;;;26.63;18.68
64792;BME280;51226;47.504;19.074;2023-02-14T13:36:30;101866.69;;;25.92;19.13
64792;BME280;51226;47.504;19.074;2023-02-14T13:39:40;101869.03;;;24.33;20.59
64792;BME280;51226;47.504;19.074;2023-02-14T13:45:53;101864.31;;;20.66;25.32
64792;BME280;51226;47.504;19.074;2023-02-14T13:55:44;101855.22;;;17.60;29.20
64792;BME280;51226;47.504;19.074;2023-02-14T14:03:02;101859.53;;;16.34;30.70
64792;BME280;51226;47.504;19.074;2023-02-14T14:08:47;101869.75;;;15.19;33.37
64792;BME280;51226;47.504;19.074;2023-02-14T14:11:50;101870.22;;;14.90;33.12
64792;BME280;51226;47.504;19.074;2023-02-14T14:21:23;101877.03;;;13.56;36.25
64792;BME280;51226;47.504;19.074;2023-02-14T14:24:30;101880.28;;;13.17;36.83
64792;BME280;51226;47.504;19.074;2023-02-14T14:27:39;101879.44;;;12.84;38.49
64792;BME280;51226;47.504;19.074;2023-02-14T14:30:43;101874.13;;;12.82;38.24
64792;BME280;51226;47.504;19.074;2023-02-14T14:33:56;101875.50;;;12.59;39.42
64792;BME280;51226;47.504;19.074;2023-02-14T14:37:06;101881.22;;;12.35;39.82
64792;BME280;51226;47.504;19.074;2023-02-14T14:40:22;101886.81;;;12.10;40.42
64792;BME280;51226;47.504;19.074;2023-02-14T14:43:35;101876.06;;;11.91;40.63
64792;BME280;51226;47.504;19.074;2023-02-14T14:46:40;101877.72;;;11.74;41.11
64792;BME280;51226;47.504;19.074;2023-02-14T14:49:43;101873.94;;;11.98;39.88
64792;BME280;51226;47.504;19.074;2023-02-14T14:52:48;101879.00;;;11.50;40.98
64792;BME280;51226;47.504;19.074;2023-02-14T14:55:52;101870.19;;;11.48;40.80
64792;BME280;51226;47.504;19.074;2023-02-14T14:58:56;101865.84;;;11.19;41.41
64792;BME280;51226;47.504;19.074;2023-02-14T15:01:59;101863.78;;;10.99;42.36
64792;BME280;51226;47.504;19.074;2023-02-14T15:05:40;101875.81;;;10.82;42.99
64792;BME280;51226;47.504;19.074;2023-02-14T15:08:43;101880.06;;;10.94;42.62
64792;BME280;51226;47.504;19.074;2023-02-14T15:11:46;101875.66;;;10.65;44.30
64792;BME280;51226;47.504;19.074;2023-02-14T15:15:13;101869.38;;;10.62;44.90
64792;BME280;51226;47.504;19.074;2023-02-14T15:18:19;101882.66;;;10.51;45.36
64792;BME280;51226;47.504;19.074;2023-02-14T15:21:23;101874.22;;;10.42;45.44
64792;BME280;51226;47.504;19.074;2023-02-14T15:24:26;101878.88;;;10.33;45.65
64792;BME280;51226;47.504;19.074;2023-02-14T15:27:29;101875.06;;;10.28;45.44
64792;BME280;51226;47.504;19.074;2023-02-14T15:30:33;101878.75;;;10.31;45.65
64792;BME280;51226;47.504;19.074;2023-02-14T15:33:39;101884.19;;;10.34;45.52
64792;BME280;51226;47.504;19.074;2023-02-14T15:36:43;101883.06;;;10.44;45.24
64792;BME280;51226;47.504;19.074;2023-02-14T15:39:52;101876.47;;;10.23;46.20
64792;BME280;51226;47.504;19.074;2023-02-14T15:43:23;101878.88;;;10.19;46.13
64792;BME280;51226;47.504;19.074;2023-02-14T15:46:28;101872.28;;;9.98;47.31
64792;BME280;51226;47.504;19.074;2023-02-14T15:49:37;101879.81;;;9.93;47.47
64792;BME280;51226;47.504;19.074;2023-02-14T15:52:43;101877.09;;;9.92;47.14
64792;BME280;51226;47.504;19.074;2023-02-14T15:55:47;101878.19;;;9.95;46.90
64792;BME280;51226;47.504;19.074;2023-02-14T15:58:58;101877.09;;;9.92;47.37
64792;BME280;51226;47.504;19.074;2023-02-14T16:05:29;101885.62;;;9.62;48.26
64792;BME280;51226;47.504;19.074;2023-02-14T16:08:37;101886.41;;;9.48;49.25
64792;BME280;51226;47.504;19.074;2023-02-14T16:11:40;101891.81;;;9.38;49.81
64792;BME280;51226;47.504;19.074;2023-02-14T16:14:43;101897.97;;;9.26;50.25
64792;BME280;51226;47.504;19.074;2023-02-14T16:17:48;101892.06;;;9.16;50.39
64792;BME280;51226;47.504;19.074;2023-02-14T16:20:51;101898.78;;;9.12;50.71
64792;BME280;51226;47.504;19.074;2023-02-14T16:27:12;101909.03;;;8.97;50.85
64792;BME280;51226;47.504;19.074;2023-02-14T16:30:16;101911.09;;;8.89;50.79
64792;BME280;51226;47.504;19.074;2023-02-14T16:33:28;101908.16;;;8.85;50.83
64792;BME280;51226;47.504;19.074;2023-02-14T16:36:32;101921.53;;;8.78;51.05
64792;BME280;51226;47.504;19.074;2023-02-14T16:39:38;101924.63;;;8.72;51.32
64792;BME280;51226;47.504;19.074;2023-02-14T16:42:41;101919.22;;;8.69;51.54
64792;BME280;51226;47.504;19.074;2023-02-14T16:45:44;101917.87;;;8.62;51.47
64792;BME280;51226;47.504;19.074;2023-02-14T16:48:48;101929.94;;;8.62;51.24
64792;BME280;51226;47.504;19.074;2023-02-14T16:51:54;101921.75;;;8.56;51.45
64792;BME280;51226;47.504;19.074;2023-02-14T16:54:57;101930.91;;;8.50;51.35
64792;BME280;51226;47.504;19.074;2023-02-14T16:58:01;101931.69;;;8.49;51.83
64792;BME280;51226;47.504;19.074;2023-02-14T17:01:04;101938.47;;;8.47;52.34
64792;BME280;51226;47.504;19.074;2023-02-14T17:04:07;101928.19;;;8.49;51.64
64792;BME280;51226;47.504;19.074;2023-02-14T17:07:13;101931.09;;;8.42;52.90
64792;BME280;51226;47.504;19.074;2023-02-14T17:10:20;101940.75;;;8.43;52.58
64792;BME280;51226;47.504;19.074;2023-02-14T17:13:30;101944.69;;;8.38;52.73
64792;BME280;51226;47.504;19.074;2023-02-14T17:16:35;101954.41;;;8.28;53.64
64792;BME280;51226;47.504;19.074;2023-02-14T17:19:39;101946.28;;;8.24;52.84
64792;BME280;51226;47.504;19.074;2023-02-14T17:22:42;101958.38;;;8.23;52.94
64792;BME280;51226;47.504;19.074;2023-02-14T17:25:46;101948.56;;;8.19;53.82
64792;BME280;51226;47.504;19.074;2023-02-14T17:28:49;101949.69;;;8.11;54.38
64792;BME280;51226;47.504;19.074;2023-02-14T17:31:52;101945.84;;;8.06;54.47
64792;BME280;51226;47.504;19.074;2023-02-14T17:34:55;101946.31;;;8.12;53.22
64792;BME280;51226;47.504;19.074;2023-02-14T17:37:58;101946.62;;;8.05;53.91
64792;BME280;51226;47.504;19.074;2023-02-14T17:41:15;101946.09;;;7.97;54.72
64792;BME280;51226;47.504;19.074;2023-02-14T17:44:18;101950.12;;;7.93;55.06
64792;BME280;51226;47.504;19.074;2023-02-14T17:47:21;101950.59;;;7.88;55.43
64792;BME280;51226;47.504;19.074;2023-02-14T17:50:24;101951.16;;;7.84;55.27
64792;BME280;51226;47.504;19.074;2023-02-14T17:53:27;101950.69;;;7.89;54.66
64792;BME280;51226;47.504;19.074;2023-02-14T17:56:30;101949.47;;;7.84;55.40
64792;BME280;51226;47.504;19.074;2023-02-14T17:59:33;101942.22;;;7.80;55.54
64792;BME280;51226;47.504;19.074;2023-02-14T18:02:36;101946.03;;;7.73;56.04
64792;BME280;51226;47.504;19.074;2023-02-14T18:05:39;101936.59;;;7.74;55.95
64792;BME280;51226;47.504;19.074;2023-02-14T18:08:44;101937.12;;;7.70;56.21
64792;BME280;51226;47.504;19.074;2023-02-14T18:11:48;101937.72;;;7.77;55.28